sensor_id;sensor_type;location;lat;lon;timestamp;P1;durP1;ratioP1;P2;durP2;ratioP2
8986;SDS011;4529;51.360;12.474;2022-12-26T00:01:00;5.27;;;2.30;;
8986;SDS011;4529;51.360;12.474;2022-12-26T00:06:03;2.40;;;2.20;;
8986;SDS011;4529;51.360;12.474;2022-12-26T00:11:06;3.03;;;2.37;;
8986;SDS011;4529;51.360;12.474;2022-12-26T00:16:14;2.40;;;2.20;;
8986;SDS011;4529;51.360;12.474;2022-12-26T00:21:17;2.50;;;2.20;;
8986;SDS011;4529;51.360;12.474;2022-12-26T00:26:21;3.33;;;2.40;;
8986;SDS011;4529;51.360;12.474;2022-12-26T00:31:25;2.73;;;2.53;;
8986;SDS011;4529;51.360;12.474;2022-12-26T00:36:28;2.60;;;2.40;;
8986;SDS011;4529;51.360;12.474;2022-12-26T00:41:31;3.97;;;2.70;;
8986;SDS011;4529;51.360;12.474;2022-12-26T00:46:35;4.00;;;2.50;;
8986;SDS011;4529;51.360;12.474;2022-12-26T00:51:39;4.47;;;2.90;;
8986;SDS011;4529;51.360;12.474;2022-12-26T00:56:43;3.20;;;2.90;;
8986;SDS011;4529;51.360;12.474;2022-12-26T01:01:46;3.53;;;2.80;;
8986;SDS011;4529;51.360;12.474;2022-12-26T01:06:49;3.33;;;2.77;;
8986;SDS011;4529;51.360;12.474;2022-12-26T01:11:54;3.37;;;2.67;;
8986;SDS011;4529;51.360;12.474;2022-12-26T01:16:58;3.17;;;2.70;;
8986;SDS011;4529;51.360;12.474;2022-12-26T01:22:02;3.53;;;2.80;;
8986;SDS011;4529;51.360;12.474;2022-12-26T01:27:06;3.40;;;3.00;;
8986;SDS011;4529;51.360;12.474;2022-12-26T01:32:10;3.27;;;2.97;;
8986;SDS011;4529;51.360;12.474;2022-12-26T01:37:15;3.33;;;2.77;;
8986;SDS011;4529;51.360;12.474;2022-12-26T01:42:20;3.27;;;2.90;;
8986;SDS011;4529;51.360;12.474;2022-12-26T01:47:31;3.27;;;2.80;;
8986;SDS011;4529;51.360;12.474;2022-12-26T01:52:37;3.13;;;2.70;;
8986;SDS011;4529;51.360;12.474;2022-12-26T01:57:40;2.83;;;2.63;;
8986;SDS011;4529;51.360;12.474;2022-12-26T02:02:43;3.07;;;2.87;;
8986;SDS011;4529;51.360;12.474;2022-12-26T02:07:46;5.27;;;2.60;;
8986;SDS011;4529;51.360;12.474;2022-12-26T02:12:50;2.53;;;2.33;;
8986;SDS011;4529;51.360;12.474;2022-12-26T02:17:54;3.43;;;2.70;;
8986;SDS011;4529;51.360;12.474;2022-12-26T02:34:11;2.50;;;2.30;;
8986;SDS011;4529;51.360;12.474;2022-12-26T02:39:37;2.73;;;2.37;;
8986;SDS011;4529;51.360;12.474;2022-12-26T02:44:58;2.63;;;2.43;;
8986;SDS011;4529;51.360;12.474;2022-12-26T02:50:23;3.10;;;2.57;;
8986;SDS011;4529;51.360;12.474;2022-12-26T02:55:52;3.37;;;2.80;;
8986;SDS011;4529;51.360;12.474;2022-12-26T03:00:57;2.43;;;2.23;;
8986;SDS011;4529;51.360;12.474;2022-12-26T03:06:12;2.83;;;2.43;;
8986;SDS011;4529;51.360;12.474;2022-12-26T03:11:25;3.03;;;2.63;;
8986;SDS011;4529;51.360;12.474;2022-12-26T03:16:27;3.17;;;2.60;;
8986;SDS011;4529;51.360;12.474;2022-12-26T03:21:35;3.87;;;2.37;;
8986;SDS011;4529;51.360;12.474;2022-12-26T03:26:39;3.33;;;2.57;;
8986;SDS011;4529;51.360;12.474;2022-12-26T03:31:41;2.60;;;2.40;;
8986;SDS011;4529;51.360;12.474;2022-12-26T03:47:39;2.90;;;2.60;;
8986;SDS011;4529;51.360;12.474;2022-12-26T03:53:00;2.57;;;2.37;;
8986;SDS011;4529;51.360;12.474;2022-12-26T04:03:24;2.73;;;2.53;;
8986;SDS011;4529;51.360;12.474;2022-12-26T04:08:54;3.27;;;2.80;;
8986;SDS011;4529;51.360;12.474;2022-12-26T04:13:39;3.07;;;2.60;;
8986;SDS011;4529;51.360;12.474;2022-12-26T04:18:43;2.53;;;2.33;;
8986;SDS011;4529;51.360;12.474;2022-12-26T04:24:07;4.93;;;2.50;;
8986;SDS011;4529;51.360;12.474;2022-12-26T04:29:12;2.60;;;2.40;;
8986;SDS011;4529;51.360;12.474;2022-12-26T04:34:29;2.70;;;2.50;;
8986;SDS011;4529;51.360;12.474;2022-12-26T04:39:28;2.73;;;2.53;;
8986;SDS011;4529;51.360;12.474;2022-12-26T04:44:32;2.83;;;2.60;;
8986;SDS011;4529;51.360;12.474;2022-12-26T04:49:41;2.70;;;2.40;;
8986;SDS011;4529;51.360;12.474;2022-12-26T04:54:44;2.40;;;2.20;;
8986;SDS011;4529;51.360;12.474;2022-12-26T04:59:48;3.53;;;2.60;;
8986;SDS011;4529;51.360;12.474;2022-12-26T05:04:51;2.77;;;2.37;;
8986;SDS011;4529;51.360;12.474;2022-12-26T05:09:55;3.43;;;2.30;;
8986;SDS011;4529;51.360;12.474;2022-12-26T05:14:59;2.47;;;2.27;;
8986;SDS011;4529;51.360;12.474;2022-12-26T05:20:04;2.47;;;2.27;;
8986;SDS011;4529;51.360;12.474;2022-12-26T05:25:11;2.70;;;2.50;;
8986;SDS011;4529;51.360;12.474;2022-12-26T05:30:11;2.57;;;2.37;;
8986;SDS011;4529;51.360;12.474;2022-12-26T05:35:14;5.50;;;2.77;;
8986;SDS011;4529;51.360;12.474;2022-12-26T05:40:18;2.93;;;2.17;;
8986;SDS011;4529;51.360;12.474;2022-12-26T05:45:21;3.20;;;2.20;;
8986;SDS011;4529;51.360;12.474;2022-12-26T05:50:25;2.43;;;2.07;;
8986;SDS011;4529;51.360;12.474;2022-12-26T05:55:28;3.50;;;2.47;;
8986;SDS011;4529;51.360;12.474;2022-12-26T06:00:32;5.20;;;2.40;;
8986;SDS011;4529;51.360;12.474;2022-12-26T06:05:35;2.73;;;2.53;;
8986;SDS011;4529;51.360;12.474;2022-12-26T06:10:39;2.70;;;2.20;;
8986;SDS011;4529;51.360;12.474;2022-12-26T06:15:43;2.70;;;2.33;;
8986;SDS011;4529;51.360;12.474;2022-12-26T06:20:47;8.37;;;2.70;;
8986;SDS011;4529;51.360;12.474;2022-12-26T06:25:54;2.93;;;2.50;;
8986;SDS011;4529;51.360;12.474;2022-12-26T06:31:02;3.57;;;2.50;;
8986;SDS011;4529;51.360;12.474;2022-12-26T06:36:08;2.50;;;2.30;;
8986;SDS011;4529;51.360;12.474;2022-12-26T06:41:12;2.50;;;2.30;;
8986;SDS011;4529;51.360;12.474;2022-12-26T06:46:16;2.60;;;2.37;;
8986;SDS011;4529;51.360;12.474;2022-12-26T06:51:20;4.17;;;2.60;;
8986;SDS011;4529;51.360;12.474;2022-12-26T06:56:24;2.77;;;2.30;;
8986;SDS011;4529;51.360;12.474;2022-12-26T07:01:27;6.83;;;2.67;;
8986;SDS011;4529;51.360;12.474;2022-12-26T07:06:30;4.07;;;2.67;;
8986;SDS011;4529;51.360;12.474;2022-12-26T07:11:34;4.43;;;2.87;;
8986;SDS011;4529;51.360;12.474;2022-12-26T07:16:37;3.23;;;2.70;;
8986;SDS011;4529;51.360;12.474;2022-12-26T07:21:43;3.57;;;2.70;;
8986;SDS011;4529;51.360;12.474;2022-12-26T07:26:47;2.63;;;2.40;;
8986;SDS011;4529;51.360;12.474;2022-12-26T07:31:50;3.10;;;2.40;;
8986;SDS011;4529;51.360;12.474;2022-12-26T07:36:53;2.60;;;2.40;;
8986;SDS011;4529;51.360;12.474;2022-12-26T07:41:57;2.77;;;2.50;;
8986;SDS011;4529;51.360;12.474;2022-12-26T07:47:02;3.07;;;2.50;;
8986;SDS011;4529;51.360;12.474;2022-12-26T07:52:11;2.83;;;2.30;;
8986;SDS011;4529;51.360;12.474;2022-12-26T07:57:14;3.63;;;2.50;;
8986;SDS011;4529;51.360;12.474;2022-12-26T08:02:18;3.83;;;2.23;;
8986;SDS011;4529;51.360;12.474;2022-12-26T08:07:21;2.97;;;2.50;;
8986;SDS011;4529;51.360;12.474;2022-12-26T08:12:26;2.93;;;2.60;;
8986;SDS011;4529;51.360;12.474;2022-12-26T08:17:30;3.73;;;2.40;;
8986;SDS011;4529;51.360;12.474;2022-12-26T08:22:39;2.70;;;2.50;;
8986;SDS011;4529;51.360;12.474;2022-12-26T08:27:42;3.20;;;2.30;;
8986;SDS011;4529;51.360;12.474;2022-12-26T08:32:46;2.80;;;2.50;;
8986;SDS011;4529;51.360;12.474;2022-12-26T08:37:49;3.00;;;2.50;;
8986;SDS011;4529;51.360;12.474;2022-12-26T08:42:53;2.40;;;2.20;;
8986;SDS011;4529;51.360;12.474;2022-12-26T08:47:57;2.53;;;2.33;;
8986;SDS011;4529;51.360;12.474;2022-12-26T08:53:02;3.80;;;2.70;;
8986;SDS011;4529;51.360;12.474;2022-12-26T08:58:06;2.73;;;2.50;;
8986;SDS011;4529;51.360;12.474;2022-12-26T09:03:10;5.27;;;2.43;;
8986;SDS011;4529;51.360;12.474;2022-12-26T09:08:14;2.63;;;2.43;;
8986;SDS011;4529;51.360;12.474;2022-12-26T09:13:18;2.63;;;2.40;;
8986;SDS011;4529;51.360;12.474;2022-12-26T09:18:22;2.77;;;2.50;;
8986;SDS011;4529;51.360;12.474;2022-12-26T09:23:31;2.60;;;2.40;;
8986;SDS011;4529;51.360;12.474;2022-12-26T09:28:34;2.33;;;2.13;;
8986;SDS011;4529;51.360;12.474;2022-12-26T09:33:38;3.07;;;2.30;;
8986;SDS011;4529;51.360;12.474;2022-12-26T09:38:42;2.43;;;2.23;;
8986;SDS011;4529;51.360;12.474;2022-12-26T09:43:58;4.50;;;2.43;;
8986;SDS011;4529;51.360;12.474;2022-12-26T09:49:16;2.93;;;2.40;;
8986;SDS011;4529;51.360;12.474;2022-12-26T09:54:28;3.40;;;2.40;;
8986;SDS011;4529;51.360;12.474;2022-12-26T09:59:29;2.73;;;2.50;;
8986;SDS011;4529;51.360;12.474;2022-12-26T10:04:33;2.73;;;2.03;;
8986;SDS011;4529;51.360;12.474;2022-12-26T10:09:43;3.00;;;2.27;;
8986;SDS011;4529;51.360;12.474;2022-12-26T10:15:06;2.20;;;2.00;;
8986;SDS011;4529;51.360;12.474;2022-12-26T10:20:22;4.93;;;2.80;;
8986;SDS011;4529;51.360;12.474;2022-12-26T10:25:37;5.07;;;2.60;;
8986;SDS011;4529;51.360;12.474;2022-12-26T10:30:38;4.40;;;2.80;;
8986;SDS011;4529;51.360;12.474;2022-12-26T10:35:42;3.27;;;2.70;;
8986;SDS011;4529;51.360;12.474;2022-12-26T10:40:45;3.70;;;2.97;;
8986;SDS011;4529;51.360;12.474;2022-12-26T10:51:20;3.93;;;3.00;;
8986;SDS011;4529;51.360;12.474;2022-12-26T10:56:23;4.17;;;3.00;;
8986;SDS011;4529;51.360;12.474;2022-12-26T11:06:31;4.27;;;3.03;;
8986;SDS011;4529;51.360;12.474;2022-12-26T11:11:39;4.73;;;2.70;;
8986;SDS011;4529;51.360;12.474;2022-12-26T11:16:42;2.83;;;2.43;;
8986;SDS011;4529;51.360;12.474;2022-12-26T11:22:12;3.20;;;2.10;;
8986;SDS011;4529;51.360;12.474;2022-12-26T11:27:23;1.73;;;1.63;;
8986;SDS011;4529;51.360;12.474;2022-12-26T11:32:27;1.90;;;1.70;;
8986;SDS011;4529;51.360;12.474;2022-12-26T11:37:38;2.57;;;1.70;;
8986;SDS011;4529;51.360;12.474;2022-12-26T11:42:41;3.93;;;2.23;;
8986;SDS011;4529;51.360;12.474;2022-12-26T11:47:46;1.60;;;1.50;;
8986;SDS011;4529;51.360;12.474;2022-12-26T11:52:51;1.80;;;1.70;;
8986;SDS011;4529;51.360;12.474;2022-12-26T12:03:21;2.53;;;1.57;;
8986;SDS011;4529;51.360;12.474;2022-12-26T12:13:41;1.67;;;1.43;;
8986;SDS011;4529;51.360;12.474;2022-12-26T12:24:34;1.10;;;1.10;;
8986;SDS011;4529;51.360;12.474;2022-12-26T12:40:20;2.37;;;1.10;;
8986;SDS011;4529;51.360;12.474;2022-12-26T12:51:22;1.00;;;1.00;;
8986;SDS011;4529;51.360;12.474;2022-12-26T12:56:43;1.00;;;1.00;;
8986;SDS011;4529;51.360;12.474;2022-12-26T13:01:59;1.53;;;1.00;;
8986;SDS011;4529;51.360;12.474;2022-12-26T13:07:13;0.80;;;0.80;;
8986;SDS011;4529;51.360;12.474;2022-12-26T13:12:10;1.33;;;1.23;;
8986;SDS011;4529;51.360;12.474;2022-12-26T13:17:32;1.00;;;1.00;;
8986;SDS011;4529;51.360;12.474;2022-12-26T13:22:38;1.27;;;1.10;;
8986;SDS011;4529;51.360;12.474;2022-12-26T13:27:40;1.07;;;1.07;;
8986;SDS011;4529;51.360;12.474;2022-12-26T13:32:44;15.93;;;2.70;;
8986;SDS011;4529;51.360;12.474;2022-12-26T13:37:55;5.90;;;1.73;;
8986;SDS011;4529;51.360;12.474;2022-12-26T13:43:00;8.50;;;1.63;;
8986;SDS011;4529;51.360;12.474;2022-12-26T13:53:32;3.47;;;1.60;;
8986;SDS011;4529;51.360;12.474;2022-12-26T14:31:17;2.77;;;1.57;;
8986;SDS011;4529;51.360;12.474;2022-12-26T14:36:46;2.77;;;1.53;;
8986;SDS011;4529;51.360;12.474;2022-12-26T14:47:09;5.30;;;2.00;;
8986;SDS011;4529;51.360;12.474;2022-12-26T15:02:44;2.60;;;1.70;;
8986;SDS011;4529;51.360;12.474;2022-12-26T15:35:53;2.37;;;1.87;;
8986;SDS011;4529;51.360;12.474;2022-12-26T15:46:30;3.50;;;1.90;;
8986;SDS011;4529;51.360;12.474;2022-12-26T16:08:33;5.17;;;3.73;;
8986;SDS011;4529;51.360;12.474;2022-12-26T16:14:09;2.83;;;2.40;;
8986;SDS011;4529;51.360;12.474;2022-12-26T16:19:15;2.50;;;2.03;;
8986;SDS011;4529;51.360;12.474;2022-12-26T16:24:20;4.27;;;2.10;;
8986;SDS011;4529;51.360;12.474;2022-12-26T16:29:23;2.40;;;2.10;;
8986;SDS011;4529;51.360;12.474;2022-12-26T16:34:27;2.63;;;2.20;;
8986;SDS011;4529;51.360;12.474;2022-12-26T16:39:31;3.70;;;2.50;;
8986;SDS011;4529;51.360;12.474;2022-12-26T16:44:37;5.80;;;3.17;;
8986;SDS011;4529;51.360;12.474;2022-12-26T16:49:40;4.90;;;3.03;;
8986;SDS011;4529;51.360;12.474;2022-12-26T16:54:44;4.97;;;3.00;;
8986;SDS011;4529;51.360;12.474;2022-12-26T16:59:55;4.37;;;3.20;;
8986;SDS011;4529;51.360;12.474;2022-12-26T17:05:01;5.90;;;2.73;;
8986;SDS011;4529;51.360;12.474;2022-12-26T17:10:04;4.83;;;2.50;;
8986;SDS011;4529;51.360;12.474;2022-12-26T17:15:15;6.50;;;3.00;;
8986;SDS011;4529;51.360;12.474;2022-12-26T17:20:32;3.20;;;2.90;;
8986;SDS011;4529;51.360;12.474;2022-12-26T17:25:32;4.13;;;2.80;;
8986;SDS011;4529;51.360;12.474;2022-12-26T17:30:36;4.03;;;3.27;;
8986;SDS011;4529;51.360;12.474;2022-12-26T17:35:39;7.03;;;3.00;;
8986;SDS011;4529;51.360;12.474;2022-12-26T17:40:44;4.80;;;2.67;;
8986;SDS011;4529;51.360;12.474;2022-12-26T17:45:48;4.30;;;2.70;;
8986;SDS011;4529;51.360;12.474;2022-12-26T17:50:53;5.27;;;3.10;;
8986;SDS011;4529;51.360;12.474;2022-12-26T17:56:00;3.53;;;3.23;;
8986;SDS011;4529;51.360;12.474;2022-12-26T18:01:02;2.90;;;2.60;;
8986;SDS011;4529;51.360;12.474;2022-12-26T18:06:05;2.83;;;2.57;;
8986;SDS011;4529;51.360;12.474;2022-12-26T18:11:10;5.80;;;2.93;;
8986;SDS011;4529;51.360;12.474;2022-12-26T18:16:13;4.23;;;2.73;;
8986;SDS011;4529;51.360;12.474;2022-12-26T18:21:18;5.43;;;2.60;;
8986;SDS011;4529;51.360;12.474;2022-12-26T18:26:23;3.17;;;2.20;;
8986;SDS011;4529;51.360;12.474;2022-12-26T18:31:28;2.50;;;1.90;;
8986;SDS011;4529;51.360;12.474;2022-12-26T18:36:32;3.23;;;1.80;;
8986;SDS011;4529;51.360;12.474;2022-12-26T18:41:36;2.47;;;1.80;;
8986;SDS011;4529;51.360;12.474;2022-12-26T18:46:39;5.07;;;3.27;;
8986;SDS011;4529;51.360;12.474;2022-12-26T18:51:48;2.70;;;2.50;;
8986;SDS011;4529;51.360;12.474;2022-12-26T18:56:51;1.67;;;1.47;;
8986;SDS011;4529;51.360;12.474;2022-12-26T19:01:55;1.80;;;1.50;;
8986;SDS011;4529;51.360;12.474;2022-12-26T19:06:59;2.70;;;1.90;;
8986;SDS011;4529;51.360;12.474;2022-12-26T19:12:03;2.80;;;2.50;;
8986;SDS011;4529;51.360;12.474;2022-12-26T19:22:32;4.17;;;2.63;;
8986;SDS011;4529;51.360;12.474;2022-12-26T19:27:36;4.40;;;3.10;;
8986;SDS011;4529;51.360;12.474;2022-12-26T19:32:40;3.57;;;2.80;;
8986;SDS011;4529;51.360;12.474;2022-12-26T19:37:45;4.90;;;4.27;;
8986;SDS011;4529;51.360;12.474;2022-12-26T19:42:49;4.73;;;4.27;;
8986;SDS011;4529;51.360;12.474;2022-12-26T19:47:52;3.57;;;2.47;;
8986;SDS011;4529;51.360;12.474;2022-12-26T19:52:56;3.13;;;2.17;;
8986;SDS011;4529;51.360;12.474;2022-12-26T19:57:59;4.20;;;2.00;;
8986;SDS011;4529;51.360;12.474;2022-12-26T20:03:03;1.67;;;1.57;;
8986;SDS011;4529;51.360;12.474;2022-12-26T20:08:07;2.47;;;1.60;;
8986;SDS011;4529;51.360;12.474;2022-12-26T20:13:12;1.77;;;1.60;;
8986;SDS011;4529;51.360;12.474;2022-12-26T20:18:15;5.07;;;2.10;;
8986;SDS011;4529;51.360;12.474;2022-12-26T20:23:22;2.97;;;1.60;;
8986;SDS011;4529;51.360;12.474;2022-12-26T20:28:25;1.70;;;1.40;;
8986;SDS011;4529;51.360;12.474;2022-12-26T20:33:29;1.83;;;1.47;;
8986;SDS011;4529;51.360;12.474;2022-12-26T20:38:32;5.93;;;1.70;;
8986;SDS011;4529;51.360;12.474;2022-12-26T20:43:36;3.80;;;1.70;;
8986;SDS011;4529;51.360;12.474;2022-12-26T20:48:40;4.33;;;1.80;;
8986;SDS011;4529;51.360;12.474;2022-12-26T20:53:43;3.83;;;1.77;;
8986;SDS011;4529;51.360;12.474;2022-12-26T20:58:47;3.53;;;1.60;;
8986;SDS011;4529;51.360;12.474;2022-12-26T21:03:51;5.97;;;1.80;;
8986;SDS011;4529;51.360;12.474;2022-12-26T21:08:53;2.63;;;1.70;;
8986;SDS011;4529;51.360;12.474;2022-12-26T21:13:58;3.70;;;1.50;;
8986;SDS011;4529;51.360;12.474;2022-12-26T21:19:04;3.47;;;1.57;;
8986;SDS011;4529;51.360;12.474;2022-12-26T21:24:09;4.43;;;1.50;;
8986;SDS011;4529;51.360;12.474;2022-12-26T21:29:20;4.10;;;1.50;;
8986;SDS011;4529;51.360;12.474;2022-12-26T21:34:20;6.43;;;1.70;;
8986;SDS011;4529;51.360;12.474;2022-12-26T21:39:24;3.77;;;1.70;;
8986;SDS011;4529;51.360;12.474;2022-12-26T21:44:27;6.30;;;1.50;;
8986;SDS011;4529;51.360;12.474;2022-12-26T21:49:31;3.70;;;1.40;;
8986;SDS011;4529;51.360;12.474;2022-12-26T21:54:34;2.40;;;1.50;;
8986;SDS011;4529;51.360;12.474;2022-12-26T21:59:38;3.30;;;1.60;;
8986;SDS011;4529;51.360;12.474;2022-12-26T22:04:41;5.23;;;1.30;;
8986;SDS011;4529;51.360;12.474;2022-12-26T22:09:45;5.70;;;1.27;;
8986;SDS011;4529;51.360;12.474;2022-12-26T22:14:49;5.00;;;1.50;;
8986;SDS011;4529;51.360;12.474;2022-12-26T22:19:52;8.40;;;1.37;;
8986;SDS011;4529;51.360;12.474;2022-12-26T22:24:56;3.10;;;1.67;;
8986;SDS011;4529;51.360;12.474;2022-12-26T22:29:59;4.70;;;1.50;;
8986;SDS011;4529;51.360;12.474;2022-12-26T22:35:04;4.17;;;1.50;;
8986;SDS011;4529;51.360;12.474;2022-12-26T22:40:08;3.80;;;1.50;;
8986;SDS011;4529;51.360;12.474;2022-12-26T22:45:11;4.47;;;1.60;;
8986;SDS011;4529;51.360;12.474;2022-12-26T22:50:15;4.50;;;1.33;;
8986;SDS011;4529;51.360;12.474;2022-12-26T22:55:31;7.43;;;1.80;;
8986;SDS011;4529;51.360;12.474;2022-12-26T23:00:34;6.50;;;1.47;;
8986;SDS011;4529;51.360;12.474;2022-12-26T23:05:38;6.43;;;1.63;;
8986;SDS011;4529;51.360;12.474;2022-12-26T23:10:41;4.23;;;1.60;;
8986;SDS011;4529;51.360;12.474;2022-12-26T23:20:58;3.83;;;1.40;;
8986;SDS011;4529;51.360;12.474;2022-12-26T23:26:06;3.77;;;1.60;;
8986;SDS011;4529;51.360;12.474;2022-12-26T23:31:10;5.73;;;1.33;;
8986;SDS011;4529;51.360;12.474;2022-12-26T23:36:13;4.33;;;1.37;;
8986;SDS011;4529;51.360;12.474;2022-12-26T23:41:17;5.47;;;1.17;;
8986;SDS011;4529;51.360;12.474;2022-12-26T23:46:21;3.83;;;1.37;;
8986;SDS011;4529;51.360;12.474;2022-12-26T23:51:24;6.80;;;1.43;;
8986;SDS011;4529;51.360;12.474;2022-12-26T23:56:28;6.00;;;1.23;;
